Terminal Aerodrome Forecast
Issued by NWS

Home | Current Version | Previous Version | Text Only | Print | Product List | Glossary On
Versions: 1 2 3 4 5 6 7 8 9 10 11 12
000
FTUS41 KCAR 131100
TAFFVE
TAF
KFVE 131120Z 1312/1412 16005KT P6SM BKN200
     FM131700 18010KT P6SM OVC070
     FM132000 18011KT P6SM -SHRA OVC040
     FM132300 17010KT P6SM -SHRA OVC025
     FM140300 18009KT 5SM -SHRA BR OVC008=

USA.gov is the U.S. government's official web portal to all federal, state and local government web resources and services.